Time,TemperatureF,DewpointF,PressureIn,WindDirection,WindDirectionDegrees,WindSpeedMPH,WindSpeedGustMPH,Humidity,HourlyPrecipIn,Conditions,Clouds,dailyrainin,SoftwareType,DateUTC
2013-02-12 00:01:00,23.0,14.0,29.99,North,-999,-999.0,-999.0,69,-99.99,,,-99.99,,2013-02-12 06:01:00,
2013-02-12 00:12:00,23.0,14.0,29.99,North,-999,-999.0,-999.0,69,-99.99,,,-99.99,,2013-02-12 06:12:00,
2013-02-12 00:21:00,23.0,14.0,29.99,North,-999,-999.0,-999.0,69,-99.99,,,-99.99,,2013-02-12 06:21:00,
2013-02-12 00:32:00,23.0,14.0,29.99,North,-999,-999.0,-999.0,69,-99.99,,,-99.99,,2013-02-12 06:32:00,
2013-02-12 00:42:00,22.0,12.0,29.99,North,-999,-999.0,-999.0,66,-99.99,,,-99.99,,2013-02-12 06:42:00,
2013-02-12 00:51:00,22.0,12.0,29.99,North,-999,-999.0,-999.0,66,-99.99,,,-99.99,,2013-02-12 06:51:00,
2013-02-12 01:01:00,22.0,13.0,29.99,North,-999,-999.0,-999.0,67,-99.99,,,-99.99,,2013-02-12 07:01:00,
2013-02-12 01:11:00,22.0,13.0,29.99,North,-999,-999.0,-999.0,67,-99.99,,,-99.99,,2013-02-12 07:11:00,
2013-02-12 01:21:00,22.0,13.0,29.99,North,-999,-999.0,-999.0,68,-99.99,,,-99.99,,2013-02-12 07:21:00,
2013-02-12 01:31:00,22.0,13.0,30.02,North,-999,-999.0,-999.0,67,-99.99,,,-99.99,,2013-02-12 07:31:00,
2013-02-12 01:41:00,22.0,13.0,30.02,North,-999,-999.0,-999.0,67,-99.99,,,-99.99,,2013-02-12 07:41:00,
2013-02-12 01:52:00,22.0,13.0,29.99,North,-999,-999.0,-999.0,68,-99.99,,,-99.99,,2013-02-12 07:52:00,
2013-02-12 02:01:00,22.0,13.0,29.99,North,-999,-999.0,-999.0,68,-99.99,,,-99.99,,2013-02-12 08:01:00,
2013-02-12 02:11:00,22.0,13.0,29.99,North,-999,-999.0,-999.0,68,-99.99,,,-99.99,,2013-02-12 08:11:00,
2013-02-12 02:21:00,22.0,13.0,29.99,North,-999,-999.0,-999.0,69,-99.99,,,-99.99,,2013-02-12 08:21:00,
2013-02-12 02:31:00,22.0,13.0,30.02,North,-999,-999.0,-999.0,69,-99.99,,,-99.99,,2013-02-12 08:31:00,
2013-02-12 02:41:00,22.0,13.0,30.02,North,-999,-999.0,-999.0,69,-99.99,,,-99.99,,2013-02-12 08:41:00,
2013-02-12 02:52:00,22.0,13.0,30.02,North,-999,-999.0,-999.0,69,-99.99,,,-99.99,,2013-02-12 08:52:00,
2013-02-12 03:01:00,22.0,13.0,30.02,North,-999,-999.0,-999.0,68,-99.99,,,-99.99,,2013-02-12 09:01:00,
2013-02-12 03:11:00,22.0,13.0,30.02,North,-999,-999.0,-999.0,68,-99.99,,,-99.99,,2013-02-12 09:11:00,
2013-02-12 03:21:00,22.0,13.0,30.02,North,-999,-999.0,-999.0,69,-99.99,,,-99.99,,2013-02-12 09:21:00,
2013-02-12 03:32:00,22.0,13.0,30.02,North,-999,-999.0,-999.0,69,-99.99,,,-99.99,,2013-02-12 09:32:00,
2013-02-12 03:41:00,22.0,13.0,30.02,North,-999,-999.0,-999.0,69,-99.99,,,-99.99,,2013-02-12 09:41:00,
2013-02-12 03:52:00,22.0,13.0,30.02,North,-999,-999.0,-999.0,69,-99.99,,,-99.99,,2013-02-12 09:52:00,
2013-02-12 04:01:00,22.0,13.0,30.02,North,-999,-999.0,-999.0,69,-99.99,,,-99.99,,2013-02-12 10:01:00,
2013-02-12 04:11:00,22.0,13.0,30.02,North,-999,-999.0,-999.0,67,-99.99,,,-99.99,,2013-02-12 10:11:00,
2013-02-12 04:21:00,22.0,13.0,30.02,North,-999,-999.0,-999.0,67,-99.99,,,-99.99,,2013-02-12 10:21:00,
2013-02-12 04:31:00,22.0,13.0,30.02,North,-999,-999.0,-999.0,68,-99.99,,,-99.99,,2013-02-12 10:31:00,
2013-02-12 04:43:00,22.0,13.0,30.02,North,-999,-999.0,-999.0,68,-99.99,,,-99.99,,2013-02-12 10:43:00,
2013-02-12 04:52:00,22.0,13.0,30.02,North,-999,-999.0,-999.0,69,-99.99,,,-99.99,,2013-02-12 10:52:00,
2013-02-12 05:01:00,22.0,13.0,30.02,North,-999,-999.0,-999.0,68,-99.99,,,-99.99,,2013-02-12 11:01:00,
2013-02-12 05:11:00,22.0,13.0,30.02,North,-999,-999.0,-999.0,68,-99.99,,,-99.99,,2013-02-12 11:11:00,
2013-02-12 05:21:00,22.0,13.0,30.02,North,-999,-999.0,-999.0,67,-99.99,,,-99.99,,2013-02-12 11:21:00,
2013-02-12 05:31:00,20.0,11.0,30.02,North,-999,-999.0,-999.0,69,-99.99,,,-99.99,,2013-02-12 11:31:00,
2013-02-12 05:41:00,20.0,11.0,30.02,North,-999,-999.0,-999.0,69,-99.99,,,-99.99,,2013-02-12 11:41:00,
2013-02-12 05:52:00,20.0,12.0,30.02,North,-999,-999.0,-999.0,70,-99.99,,,-99.99,,2013-02-12 11:52:00,
2013-02-12 06:01:00,20.0,12.0,30.02,North,-999,-999.0,-999.0,71,-99.99,,,-99.99,,2013-02-12 12:01:00,
2013-02-12 06:11:00,20.0,12.0,30.02,North,-999,-999.0,-999.0,71,-99.99,,,-99.99,,2013-02-12 12:11:00,
2013-02-12 06:21:00,19.0,11.0,30.02,North,-999,-999.0,-999.0,72,-99.99,,,-99.99,,2013-02-12 12:21:00,
2013-02-12 06:32:00,18.0,11.0,30.02,North,-999,-999.0,-999.0,74,-99.99,,,-99.99,,2013-02-12 12:32:00,
2013-02-12 06:42:00,18.0,11.0,30.02,North,-999,-999.0,-999.0,74,-99.99,,,-99.99,,2013-02-12 12:42:00,
2013-02-12 06:53:00,20.0,13.0,29.99,North,-999,-999.0,-999.0,74,-99.99,,,-99.99,,2013-02-12 12:53:00,
2013-02-12 07:01:00,20.0,13.0,29.99,North,-999,-999.0,-999.0,73,-99.99,,,-99.99,,2013-02-12 13:01:00,
2013-02-12 07:11:00,20.0,13.0,30.02,North,-999,-999.0,-999.0,74,-99.99,,,-99.99,,2013-02-12 13:11:00,
2013-02-12 07:22:00,20.0,13.0,30.02,North,-999,-999.0,-999.0,74,-99.99,,,-99.99,,2013-02-12 13:22:00,
2013-02-12 07:32:00,21.0,14.0,29.99,North,-999,-999.0,-999.0,73,-99.99,,,-99.99,,2013-02-12 13:32:00,
2013-02-12 07:42:00,21.0,14.0,29.99,North,-999,-999.0,-999.0,73,-99.99,,,-99.99,,2013-02-12 13:42:00,
2013-02-12 07:52:00,21.0,14.0,29.99,North,-999,-999.0,-999.0,73,-99.99,,,-99.99,,2013-02-12 13:52:00,
2013-02-12 08:01:00,22.0,14.0,30.02,North,-999,-999.0,-999.0,72,-99.99,,,-99.99,,2013-02-12 14:01:00,
2013-02-12 08:11:00,22.0,14.0,30.02,North,-999,-999.0,-999.0,72,-99.99,,,-99.99,,2013-02-12 14:11:00,
2013-02-12 08:21:00,22.0,14.0,30.02,North,-999,-999.0,-999.0,71,-99.99,,,-99.99,,2013-02-12 14:21:00,
2013-02-12 08:32:00,23.0,15.0,30.02,North,-999,-999.0,-999.0,71,-99.99,,,-99.99,,2013-02-12 14:32:00,
2013-02-12 08:42:00,23.0,15.0,30.02,North,-999,-999.0,-999.0,71,-99.99,,,-99.99,,2013-02-12 14:42:00,
2013-02-12 08:52:00,24.0,16.0,30.02,North,-999,-999.0,-999.0,70,-99.99,,,-99.99,,2013-02-12 14:52:00,
2013-02-12 09:02:00,25.0,16.0,30.02,North,-999,-999.0,-999.0,67,-99.99,,,-99.99,,2013-02-12 15:02:00,
2013-02-12 09:11:00,25.0,16.0,30.02,North,-999,-999.0,-999.0,67,-99.99,,,-99.99,,2013-02-12 15:11:00,
2013-02-12 09:21:00,25.0,16.0,30.02,North,-999,-999.0,-999.0,67,-99.99,,,-99.99,,2013-02-12 15:21:00,
2013-02-12 09:32:00,25.0,16.0,30.02,North,-999,-999.0,-999.0,67,-99.99,,,-99.99,,2013-02-12 15:32:00,
2013-02-12 09:42:00,25.0,16.0,30.02,North,-999,-999.0,-999.0,67,-99.99,,,-99.99,,2013-02-12 15:42:00,
2013-02-12 10:22:00,30.0,17.0,29.99,North,-999,-999.0,-999.0,59,-99.99,,,-99.99,,2013-02-12 16:22:00,
2013-02-12 10:32:00,33.0,20.0,29.99,North,-999,-999.0,-999.0,58,-99.99,,,-99.99,,2013-02-12 16:32:00,
2013-02-12 10:52:00,34.0,20.0,29.99,North,-999,-999.0,-999.0,55,-99.99,,,-99.99,,2013-02-12 16:52:00,
2013-02-12 11:01:00,32.0,19.0,29.96,North,-999,-999.0,-999.0,57,-99.99,,,-99.99,,2013-02-12 17:01:00,
2013-02-12 11:12:00,32.0,19.0,29.96,North,-999,-999.0,-999.0,57,-99.99,,,-99.99,,2013-02-12 17:12:00,
2013-02-12 11:21:00,33.0,19.0,29.96,North,-999,-999.0,-999.0,57,-99.99,,,-99.99,,2013-02-12 17:21:00,
2013-02-12 11:32:00,32.0,19.0,29.96,North,-999,-999.0,-999.0,58,-99.99,,,-99.99,,2013-02-12 17:32:00,
2013-02-12 11:42:00,32.0,19.0,29.96,North,-999,-999.0,-999.0,58,-99.99,,,-99.99,,2013-02-12 17:42:00,
2013-02-12 11:52:00,31.0,18.0,29.96,North,-999,-999.0,-999.0,58,-99.99,,,-99.99,,2013-02-12 17:52:00,
2013-02-12 12:01:00,31.0,18.0,29.96,North,-999,-999.0,-999.0,58,-99.99,,,-99.99,,2013-02-12 18:01:00,
2013-02-12 12:11:00,31.0,18.0,29.96,North,-999,-999.0,-999.0,58,-99.99,,,-99.99,,2013-02-12 18:11:00,
2013-02-12 12:23:00,31.0,18.0,29.96,North,-999,-999.0,-999.0,58,-99.99,,,-99.99,,2013-02-12 18:23:00,
2013-02-12 12:31:00,31.0,18.0,29.96,North,-999,-999.0,-999.0,58,-99.99,,,-99.99,,2013-02-12 18:31:00,
2013-02-12 14:52:00,36.0,22.0,29.87,North,-999,-999.0,-999.0,57,-99.99,,,-99.99,,2013-02-12 20:52:00,
2013-02-12 15:01:00,36.0,22.0,29.87,North,-999,-999.0,-999.0,57,-99.99,,,-99.99,,2013-02-12 21:01:00,
2013-02-12 15:11:00,36.0,22.0,29.87,North,-999,-999.0,-999.0,57,-99.99,,,-99.99,,2013-02-12 21:11:00,
2013-02-12 15:21:00,36.0,22.0,29.84,North,-999,-999.0,-999.0,56,-99.99,,,-99.99,,2013-02-12 21:21:00,
2013-02-12 15:31:00,36.0,22.0,29.84,North,-999,-999.0,-999.0,57,-99.99,,,-99.99,,2013-02-12 21:31:00,
2013-02-12 15:42:00,36.0,23.0,29.84,North,-999,-999.0,-999.0,59,-99.99,,,-99.99,,2013-02-12 21:42:00,
2013-02-12 15:52:00,36.0,23.0,29.84,North,-999,-999.0,-999.0,59,-99.99,,,-99.99,,2013-02-12 21:52:00,
2013-02-12 16:01:00,35.0,22.0,29.84,North,-999,-999.0,-999.0,59,-99.99,,,-99.99,,2013-02-12 22:01:00,
2013-02-12 16:12:00,35.0,22.0,29.84,North,-999,-999.0,-999.0,59,-99.99,,,-99.99,,2013-02-12 22:12:00,
2013-02-12 16:21:00,35.0,23.0,29.84,North,-999,-999.0,-999.0,60,-99.99,,,-99.99,,2013-02-12 22:21:00,
2013-02-12 16:32:00,34.0,22.0,29.84,North,-999,-999.0,-999.0,61,-99.99,,,-99.99,,2013-02-12 22:32:00,
2013-02-12 16:41:00,34.0,22.0,29.84,North,-999,-999.0,-999.0,61,-99.99,,,-99.99,,2013-02-12 22:41:00,
2013-02-12 16:52:00,34.0,22.0,29.84,North,-999,-999.0,-999.0,62,-99.99,,,-99.99,,2013-02-12 22:52:00,
2013-02-12 17:01:00,33.0,22.0,29.84,North,-999,-999.0,-999.0,63,-99.99,,,-99.99,,2013-02-12 23:01:00,
2013-02-12 17:11:00,33.0,22.0,29.84,North,-999,-999.0,-999.0,64,-99.99,,,-99.99,,2013-02-12 23:11:00,
2013-02-12 17:21:00,33.0,22.0,29.84,North,-999,-999.0,-999.0,64,-99.99,,,-99.99,,2013-02-12 23:21:00,
2013-02-12 17:31:00,32.0,22.0,29.84,North,-999,-999.0,-999.0,65,-99.99,,,-99.99,,2013-02-12 23:31:00,
2013-02-12 17:42:00,32.0,22.0,29.84,North,-999,-999.0,-999.0,65,-99.99,,,-99.99,,2013-02-12 23:42:00,
2013-02-12 17:52:00,30.0,20.0,29.84,North,-999,-999.0,-999.0,67,-99.99,,,-99.99,,2013-02-12 23:52:00,
2013-02-12 18:02:00,28.0,20.0,29.84,North,-999,-999.0,-999.0,70,-99.99,,,-99.99,,2013-02-13 00:02:00,
2013-02-12 18:11:00,28.0,20.0,29.84,North,-999,-999.0,-999.0,70,-99.99,,,-99.99,,2013-02-13 00:11:00,
2013-02-12 18:21:00,28.0,20.0,29.84,North,-999,-999.0,-999.0,72,-99.99,,,-99.99,,2013-02-13 00:21:00,
2013-02-12 18:32:00,27.0,20.0,29.84,North,-999,-999.0,-999.0,73,-99.99,,,-99.99,,2013-02-13 00:32:00,
2013-02-12 18:42:00,27.0,20.0,29.84,North,-999,-999.0,-999.0,73,-99.99,,,-99.99,,2013-02-13 00:42:00,
2013-02-12 18:52:00,26.0,19.0,29.84,North,-999,-999.0,-999.0,74,-99.99,,,-99.99,,2013-02-13 00:52:00,
2013-02-12 19:01:00,25.0,18.0,29.84,North,-999,-999.0,-999.0,75,-99.99,,,-99.99,,2013-02-13 01:01:00,
2013-02-12 19:11:00,25.0,18.0,29.84,North,-999,-999.0,-999.0,75,-99.99,,,-99.99,,2013-02-13 01:11:00,
2013-02-12 19:21:00,24.0,18.0,29.84,North,-999,-999.0,-999.0,77,-99.99,,,-99.99,,2013-02-13 01:21:00,
2013-02-12 19:31:00,24.0,18.0,29.84,North,-999,-999.0,-999.0,78,-99.99,,,-99.99,,2013-02-13 01:31:00,
2013-02-12 19:42:00,24.0,18.0,29.84,North,-999,-999.0,-999.0,78,-99.99,,,-99.99,,2013-02-13 01:42:00,
2013-02-12 19:52:00,24.0,18.0,29.84,North,-999,-999.0,-999.0,79,-99.99,,,-99.99,,2013-02-13 01:52:00,
2013-02-12 20:01:00,25.0,19.0,29.84,North,-999,-999.0,-999.0,79,-99.99,,,-99.99,,2013-02-13 02:01:00,
2013-02-12 20:11:00,25.0,19.0,29.84,North,-999,-999.0,-999.0,79,-99.99,,,-99.99,,2013-02-13 02:11:00,
2013-02-12 20:21:00,25.0,19.0,29.81,North,-999,-999.0,-999.0,79,-99.99,,,-99.99,,2013-02-13 02:21:00,
2013-02-12 20:31:00,25.0,19.0,29.81,North,-999,-999.0,-999.0,79,-99.99,,,-99.99,,2013-02-13 02:31:00,
2013-02-12 20:41:00,25.0,19.0,29.81,North,-999,-999.0,-999.0,79,-99.99,,,-99.99,,2013-02-13 02:41:00,
2013-02-12 20:52:00,26.0,21.0,29.81,North,-999,-999.0,-999.0,80,-99.99,,,-99.99,,2013-02-13 02:52:00,
2013-02-12 21:01:00,26.0,21.0,29.81,North,-999,-999.0,-999.0,80,-99.99,,,-99.99,,2013-02-13 03:01:00,
2013-02-12 21:11:00,26.0,21.0,29.81,North,-999,-999.0,-999.0,80,-99.99,,,-99.99,,2013-02-13 03:11:00,
2013-02-12 21:21:00,26.0,21.0,29.81,North,-999,-999.0,-999.0,80,-99.99,,,-99.99,,2013-02-13 03:21:00,
2013-02-12 21:32:00,26.0,21.0,29.78,North,-999,-999.0,-999.0,81,-99.99,,,-99.99,,2013-02-13 03:32:00,
2013-02-12 21:41:00,26.0,21.0,29.78,North,-999,-999.0,-999.0,81,-99.99,,,-99.99,,2013-02-13 03:41:00,
2013-02-12 21:52:00,26.0,21.0,29.81,North,-999,-999.0,-999.0,81,-99.99,,,-99.99,,2013-02-13 03:52:00,
2013-02-12 22:01:00,26.0,21.0,29.78,North,-999,-999.0,-999.0,81,-99.99,,,-99.99,,2013-02-13 04:01:00,
2013-02-12 22:11:00,26.0,21.0,29.78,North,-999,-999.0,-999.0,81,-99.99,,,-99.99,,2013-02-13 04:11:00,
2013-02-12 22:21:00,26.0,21.0,29.78,North,-999,-999.0,-999.0,81,-99.99,,,-99.99,,2013-02-13 04:21:00,
2013-02-12 22:31:00,25.0,20.0,29.78,North,-999,-999.0,-999.0,82,-99.99,,,-99.99,,2013-02-13 04:31:00,
2013-02-12 22:41:00,25.0,20.0,29.78,North,-999,-999.0,-999.0,82,-99.99,,,-99.99,,2013-02-13 04:41:00,
2013-02-12 22:52:00,25.0,20.0,29.78,North,-999,-999.0,-999.0,82,-99.99,,,-99.99,,2013-02-13 04:52:00,
2013-02-12 23:01:00,24.0,19.0,29.78,North,-999,-999.0,-999.0,82,-99.99,,,-99.99,,2013-02-13 05:01:00,
2013-02-12 23:11:00,24.0,19.0,29.78,North,-999,-999.0,-999.0,82,-99.99,,,-99.99,,2013-02-13 05:11:00,
2013-02-12 23:22:00,24.0,19.0,29.78,North,-999,-999.0,-999.0,82,-99.99,,,-99.99,,2013-02-13 05:22:00,
2013-02-12 23:31:00,24.0,20.0,29.78,North,-999,-999.0,-999.0,83,-99.99,,,-99.99,,2013-02-13 05:31:00,
2013-02-12 23:42:00,24.0,20.0,29.78,North,-999,-999.0,-999.0,83,-99.99,,,-99.99,,2013-02-13 05:42:00,
2013-02-12 23:52:00,23.0,19.0,29.78,North,-999,-999.0,-999.0,84,-99.99,,,-99.99,,2013-02-13 05:52:00,